createdAt,value
2023-04-16T04:15:31.651Z,8.88
2023-04-16T04:16:31.670Z,8.90
2023-04-16T04:17:31.694Z,8.91
2023-04-16T04:18:31.642Z,8.93
2023-04-16T04:19:31.593Z,8.91
2023-04-16T04:20:31.583Z,8.91
2023-04-16T04:21:31.596Z,8.88
2023-04-16T04:22:31.560Z,8.86
2023-04-16T04:23:31.545Z,8.84
2023-04-16T04:24:31.524Z,8.84
2023-04-16T04:25:31.512Z,8.86
2023-04-16T04:26:31.598Z,8.87
2023-04-16T04:27:31.497Z,8.87
2023-04-16T04:28:31.471Z,8.87
2023-04-16T04:29:31.462Z,8.87
2023-04-16T04:30:31.454Z,8.87
2023-04-16T04:31:31.506Z,8.88
2023-04-16T04:32:31.450Z,8.88
2023-04-16T04:33:31.426Z,8.88
2023-04-16T04:34:31.392Z,8.88
2023-04-16T04:35:31.409Z,8.90
2023-04-16T04:36:31.387Z,8.91
2023-04-16T04:37:31.359Z,8.88
2023-04-16T04:38:31.339Z,8.90
2023-04-16T04:39:31.339Z,8.87
2023-04-16T04:40:31.323Z,8.90
2023-04-16T04:41:31.325Z,8.90
2023-04-16T04:42:31.287Z,8.88
2023-04-16T04:43:31.290Z,8.86
2023-04-16T04:44:31.269Z,8.87
2023-04-16T04:45:32.093Z,8.87
2023-04-16T04:46:31.248Z,8.87
2023-04-16T04:47:31.238Z,8.87
2023-04-16T04:48:31.207Z,8.87
2023-04-16T04:49:31.203Z,8.87
2023-04-16T04:50:31.188Z,8.90
2023-04-16T04:51:31.198Z,8.87
2023-04-16T04:52:31.187Z,8.88
2023-04-16T04:53:31.146Z,8.88
2023-04-16T04:54:31.131Z,8.88
2023-04-16T04:55:31.125Z,8.93
2023-04-16T04:56:31.135Z,8.91
2023-04-16T04:57:31.091Z,8.90
2023-04-16T04:58:31.079Z,8.88
2023-04-16T04:59:31.064Z,8.87
2023-04-16T05:00:31.049Z,8.88
2023-04-16T05:01:31.103Z,8.91
2023-04-16T05:02:31.126Z,8.91
2023-04-16T05:03:31.103Z,8.91
2023-04-16T05:04:31.003Z,8.91
2023-04-16T05:05:30.992Z,8.90
2023-04-16T05:06:30.997Z,8.91
2023-04-16T05:07:30.968Z,8.93
2023-04-16T05:08:30.951Z,8.91
2023-04-16T05:09:30.942Z,8.93
2023-04-16T05:10:30.919Z,8.93
2023-04-16T05:11:30.919Z,8.93
2023-04-16T05:12:30.888Z,8.91
2023-04-16T05:13:30.891Z,8.94
2023-04-16T05:14:30.869Z,8.94
2023-04-16T05:15:30.855Z,8.93
2023-04-16T05:16:30.910Z,8.91
2023-04-16T05:17:37.981Z,8.91
2023-04-16T05:18:30.809Z,8.88
2023-04-16T05:19:30.824Z,8.88
2023-04-16T05:20:30.789Z,8.88
2023-04-16T05:21:30.792Z,8.87
2023-04-16T05:22:30.759Z,8.87
2023-04-16T05:23:30.754Z,8.86
2023-04-16T05:24:30.738Z,8.84
2023-04-16T05:25:30.722Z,8.83
2023-04-16T05:26:30.714Z,8.79
2023-04-16T05:27:30.695Z,8.79
2023-04-16T05:28:30.931Z,8.83
2023-04-16T05:29:30.681Z,8.84
2023-04-16T05:30:30.668Z,8.84
2023-04-16T05:31:30.659Z,8.81
2023-04-16T05:32:30.660Z,8.84
2023-04-16T05:33:30.623Z,8.83
2023-04-16T05:34:30.609Z,8.81
2023-04-16T05:35:30.591Z,8.83
2023-04-16T05:36:30.591Z,8.81
2023-04-16T05:37:30.564Z,8.83
2023-04-16T05:38:30.542Z,8.84
2023-04-16T05:39:30.533Z,8.87
2023-04-16T05:40:30.534Z,8.86
2023-04-16T05:41:30.517Z,8.86
2023-04-16T05:42:30.514Z,8.79
2023-04-16T05:43:30.484Z,8.78
2023-04-16T05:44:30.460Z,8.78
2023-04-16T05:45:30.457Z,8.76
2023-04-16T05:46:30.466Z,8.78
2023-04-16T05:47:30.450Z,8.79
2023-04-16T05:48:30.419Z,8.78
2023-04-16T05:49:30.402Z,8.79
2023-04-16T05:50:30.385Z,8.81
2023-04-16T05:51:30.383Z,8.81
2023-04-16T05:52:30.369Z,8.81
2023-04-16T05:53:30.351Z,8.79
2023-04-16T05:54:30.330Z,8.81
2023-04-16T05:55:30.327Z,8.84
2023-04-16T05:56:30.331Z,8.86
2023-04-16T05:57:30.299Z,8.86
2023-04-16T05:58:30.278Z,8.86
2023-04-16T05:59:30.262Z,8.86
2023-04-16T06:00:30.272Z,8.87
2023-04-16T06:01:30.265Z,8.88
2023-04-16T06:02:30.348Z,8.87
2023-04-16T06:03:30.469Z,8.87
2023-04-16T06:04:30.202Z,8.88
2023-04-16T06:05:30.330Z,8.87
2023-04-16T06:06:30.188Z,8.86
2023-04-16T06:07:30.161Z,8.84
2023-04-16T06:08:30.148Z,8.83
2023-04-16T06:09:30.126Z,8.81
2023-04-16T06:10:30.141Z,8.78
2023-04-16T06:11:30.302Z,8.73
2023-04-16T06:12:30.105Z,8.72
2023-04-16T06:13:30.077Z,8.75
2023-04-16T06:14:30.069Z,8.78
2023-04-16T06:15:30.050Z,8.78
2023-04-16T06:16:30.089Z,8.79
2023-04-16T06:17:30.065Z,8.83
2023-04-16T06:18:30.018Z,8.79
2023-04-16T06:19:30.008Z,8.75
2023-04-16T06:20:30.001Z,8.73
2023-04-16T06:21:29.983Z,8.75
2023-04-16T06:22:29.965Z,8.72
2023-04-16T06:23:29.946Z,8.72
2023-04-16T06:24:29.935Z,8.72
2023-04-16T06:25:29.916Z,8.72
2023-04-16T06:26:29.914Z,8.75
2023-04-16T06:27:29.918Z,8.84
2023-04-16T06:28:29.880Z,9.05
2023-04-16T06:29:40.709Z,9.18
2023-04-16T06:30:30.853Z,9.15
2023-04-16T06:31:29.921Z,9.02
2023-04-16T06:32:29.869Z,9.15
2023-04-16T06:33:29.811Z,9.15
2023-04-16T06:34:29.811Z,9.27
2023-04-16T06:35:29.782Z,9.25
2023-04-16T06:36:29.784Z,9.21
2023-04-16T06:37:29.756Z,9.10
2023-04-16T06:38:29.753Z,9.04
2023-04-16T06:39:29.724Z,8.99
2023-04-16T06:40:29.731Z,8.99
2023-04-16T06:41:29.727Z,9.04
2023-04-16T06:42:29.711Z,9.09
2023-04-16T06:43:29.687Z,9.13
2023-04-16T06:44:29.685Z,9.15
2023-04-16T06:45:29.649Z,9.18
2023-04-16T06:46:29.694Z,9.18
2023-04-16T06:47:29.714Z,9.13
2023-04-16T06:48:29.612Z,9.15
2023-04-16T06:49:29.600Z,9.10
2023-04-16T06:50:29.602Z,9.12
2023-04-16T06:51:29.601Z,9.13
2023-04-16T06:52:29.557Z,9.20
2023-04-16T06:53:29.543Z,9.21
2023-04-16T06:54:29.543Z,9.21
2023-04-16T06:55:29.518Z,9.21
2023-04-16T06:56:29.524Z,9.25
2023-04-16T06:57:29.491Z,9.25
2023-04-16T06:58:29.496Z,9.23
2023-04-16T06:59:29.467Z,9.23
2023-04-16T07:00:29.465Z,9.24
2023-04-16T07:01:29.539Z,9.25
2023-04-16T07:02:29.610Z,9.23
2023-04-16T07:03:29.597Z,9.23
2023-04-16T07:04:29.439Z,9.20
2023-04-16T07:05:29.437Z,9.23
2023-04-16T07:06:29.399Z,9.27
2023-04-16T07:07:29.361Z,9.24
2023-04-16T07:08:29.354Z,9.25
2023-04-16T07:09:29.336Z,9.31
2023-04-16T07:10:29.348Z,9.31
2023-04-16T07:11:29.323Z,9.32
2023-04-16T07:12:29.298Z,9.34
2023-04-16T07:13:29.293Z,9.38
2023-04-16T07:14:29.281Z,9.38
2023-04-16T07:15:29.262Z,9.34
2023-04-16T07:16:29.330Z,9.39
2023-04-16T07:17:29.260Z,9.46
2023-04-16T07:18:29.231Z,9.46
2023-04-16T07:19:29.209Z,9.48
2023-04-16T07:20:29.202Z,9.48
2023-04-16T07:21:29.221Z,9.46
2023-04-16T07:22:29.179Z,9.42
2023-04-16T07:23:29.167Z,9.46
2023-04-16T07:24:29.148Z,9.40
2023-04-16T07:25:29.126Z,9.32
2023-04-16T07:26:29.183Z,9.31
2023-04-16T07:27:29.128Z,9.28
2023-04-16T07:28:29.105Z,9.18
2023-04-16T07:29:29.082Z,9.16
2023-04-16T07:30:29.096Z,9.20
2023-04-16T07:31:29.124Z,9.20
2023-04-16T07:32:29.119Z,9.21
2023-04-16T07:33:29.034Z,9.27
2023-04-16T07:34:29.019Z,9.35
2023-04-16T07:35:29.001Z,9.38
2023-04-16T07:36:29.013Z,9.39
2023-04-16T07:37:28.975Z,9.46
2023-04-16T07:38:29.032Z,9.52
2023-04-16T07:39:28.951Z,9.58
2023-04-16T07:40:28.943Z,9.66
2023-04-16T07:41:28.946Z,9.70
2023-04-16T07:42:28.910Z,9.61
2023-04-16T07:43:28.897Z,9.63
2023-04-16T07:44:28.892Z,9.70
2023-04-16T07:45:28.879Z,9.81
2023-04-16T07:46:39.387Z,9.81
2023-04-16T07:47:29.879Z,9.82
2023-04-16T07:48:28.849Z,9.83
2023-04-16T07:49:28.828Z,9.91
2023-04-16T07:50:28.822Z,9.96
2023-04-16T07:51:28.811Z,9.96
2023-04-16T07:52:28.791Z,9.88
2023-04-16T07:53:28.762Z,9.82
2023-04-16T07:54:29.283Z,9.88
2023-04-16T07:55:28.745Z,9.99
2023-04-16T07:56:28.745Z,10.07
2023-04-16T07:57:28.713Z,10.15
2023-04-16T07:58:28.709Z,10.12
2023-04-16T07:59:28.876Z,10.10
2023-04-16T08:00:28.690Z,10.15
2023-04-16T08:01:28.668Z,10.14
2023-04-16T08:02:28.797Z,9.99
2023-04-16T08:03:28.827Z,9.99
2023-04-16T08:04:28.846Z,10.04
2023-04-16T08:05:28.639Z,9.96
2023-04-16T08:06:28.616Z,9.93
2023-04-16T08:07:28.587Z,9.86
2023-04-16T08:08:28.575Z,9.85
2023-04-16T08:09:28.568Z,9.76
2023-04-16T08:10:28.552Z,9.82
2023-04-16T08:11:28.555Z,9.78
2023-04-16T08:12:28.518Z,9.71
2023-04-16T08:13:28.503Z,9.79
2023-04-16T08:14:28.493Z,9.85
2023-04-16T08:15:28.510Z,9.93
2023-04-16T08:16:28.499Z,9.96
2023-04-16T08:17:28.524Z,9.99
2023-04-16T08:18:28.441Z,10.06
2023-04-16T08:19:28.429Z,10.12
2023-04-16T08:20:28.409Z,10.18
2023-04-16T08:21:28.433Z,10.25
2023-04-16T08:22:28.383Z,10.28
2023-04-16T08:23:28.376Z,10.39
2023-04-16T08:24:28.364Z,10.44
2023-04-16T08:25:28.356Z,10.53
2023-04-16T08:26:28.345Z,10.58
2023-04-16T08:27:28.336Z,10.55
2023-04-16T08:28:28.313Z,10.58
2023-04-16T08:29:28.318Z,10.58
2023-04-16T08:30:28.275Z,10.53
2023-04-16T08:31:28.318Z,10.56
2023-04-16T08:32:28.274Z,10.52
2023-04-16T08:33:28.244Z,10.43
2023-04-16T08:34:28.217Z,10.47
2023-04-16T08:35:28.224Z,10.56
2023-04-16T08:36:28.210Z,10.58
2023-04-16T08:37:28.197Z,10.65
2023-04-16T08:38:28.179Z,10.78
2023-04-16T08:39:28.163Z,10.86
2023-04-16T08:40:28.144Z,10.92
2023-04-16T08:41:28.146Z,10.94
2023-04-16T08:42:28.113Z,10.95
2023-04-16T08:43:28.105Z,10.95
2023-04-16T08:44:28.087Z,11.03
2023-04-16T08:45:28.093Z,11.09
2023-04-16T08:46:28.130Z,11.19
2023-04-16T08:47:28.083Z,11.27
2023-04-16T08:48:28.053Z,11.24
2023-04-16T08:49:28.024Z,11.19
2023-04-16T08:50:28.004Z,11.13
2023-04-16T08:51:28.011Z,11.06
2023-04-16T08:52:27.985Z,11.09
2023-04-16T08:53:27.964Z,11.11
2023-04-16T08:54:27.949Z,11.14
2023-04-16T08:55:27.944Z,11.13
2023-04-16T08:56:27.943Z,10.89
2023-04-16T08:57:27.910Z,10.83
2023-04-16T08:58:27.891Z,10.84
2023-04-16T08:59:27.885Z,10.95
2023-04-16T09:00:27.891Z,10.91
2023-04-16T09:01:27.912Z,10.95
2023-04-16T09:02:27.994Z,10.96
2023-04-16T09:03:27.901Z,11.01
2023-04-16T09:04:27.900Z,11.06
2023-04-16T09:05:27.824Z,11.10
2023-04-16T09:06:27.805Z,11.03
2023-04-16T09:07:27.779Z,11.16
2023-04-16T09:08:27.764Z,11.35
2023-04-16T09:09:27.747Z,11.52
2023-04-16T09:10:27.732Z,11.70
2023-04-16T09:11:27.731Z,11.80
2023-04-16T09:12:27.705Z,11.78
2023-04-16T09:13:27.699Z,11.74
2023-04-16T09:14:27.683Z,11.85
2023-04-16T09:15:27.676Z,11.94
2023-04-16T09:16:27.677Z,12.02
2023-04-16T09:17:27.674Z,12.19
2023-04-16T09:18:27.627Z,12.30
2023-04-16T09:19:27.626Z,12.42
2023-04-16T09:20:27.601Z,12.59
2023-04-16T09:21:27.608Z,12.67
2023-04-16T09:22:27.575Z,12.75
2023-04-16T09:23:27.568Z,12.84
2023-04-16T09:24:27.551Z,12.82
2023-04-16T09:25:27.543Z,12.84
2023-04-16T09:26:27.541Z,12.82
2023-04-16T09:27:27.516Z,12.70
2023-04-16T09:28:27.493Z,12.52
2023-04-16T09:29:27.487Z,12.37
2023-04-16T09:30:27.536Z,12.24
2023-04-16T09:31:27.541Z,12.23
2023-04-16T09:32:27.586Z,12.31
2023-04-16T09:33:27.427Z,12.29
2023-04-16T09:34:27.421Z,12.08
2023-04-16T09:35:27.402Z,12.12
2023-04-16T09:36:27.400Z,12.31
2023-04-16T09:37:27.370Z,12.54
2023-04-16T09:38:27.361Z,12.78
2023-04-16T09:39:27.366Z,13.02
2023-04-16T09:40:27.443Z,13.32
2023-04-16T09:41:27.332Z,13.30
2023-04-16T09:42:27.366Z,13.27
2023-04-16T09:43:27.295Z,13.17
2023-04-16T09:44:27.283Z,13.22
2023-04-16T09:45:27.284Z,13.43
2023-04-16T09:46:27.283Z,13.44
2023-04-16T09:47:27.266Z,13.47
2023-04-16T09:48:27.235Z,13.43
2023-04-16T09:49:27.215Z,13.37
2023-04-16T09:50:27.222Z,13.25
2023-04-16T09:51:27.211Z,13.15
2023-04-16T09:52:27.167Z,13.11
2023-04-16T09:53:27.166Z,13.04
2023-04-16T09:54:27.154Z,13.04
2023-04-16T09:55:27.160Z,12.99
2023-04-16T09:56:27.128Z,12.87
2023-04-16T09:57:27.127Z,12.88
2023-04-16T09:58:27.097Z,12.93
2023-04-16T09:59:27.094Z,13.02
2023-04-16T10:00:27.079Z,13.14
2023-04-16T10:01:27.091Z,13.25
2023-04-16T10:02:27.111Z,13.30
2023-04-16T10:03:27.121Z,13.33
2023-04-16T10:04:27.048Z,13.32
2023-04-16T10:05:27.012Z,13.24
2023-04-16T10:06:26.995Z,13.07
2023-04-16T10:07:26.976Z,13.00
2023-04-16T10:08:26.970Z,13.04
2023-04-16T10:09:26.946Z,13.00
2023-04-16T10:10:26.960Z,13.06
2023-04-16T10:11:26.929Z,13.11
2023-04-16T10:12:26.918Z,13.17
2023-04-16T10:13:26.902Z,13.22
2023-04-16T10:14:26.916Z,13.33
2023-04-16T10:15:26.872Z,13.43
2023-04-16T10:16:27.003Z,13.46
2023-04-16T10:17:26.862Z,13.49
2023-04-16T10:18:26.827Z,13.51
2023-04-16T10:19:26.819Z,13.43
2023-04-16T10:20:26.825Z,13.30
2023-04-16T10:21:26.793Z,13.33
2023-04-16T10:22:26.780Z,13.40
2023-04-16T10:23:26.765Z,13.40
2023-04-16T10:24:26.753Z,13.44
2023-04-16T10:25:26.747Z,13.36
2023-04-16T10:26:26.726Z,13.55
2023-04-16T10:27:26.713Z,13.63
2023-04-16T10:28:26.702Z,13.87
2023-04-16T10:29:26.716Z,13.96
2023-04-16T10:30:26.697Z,13.84
2023-04-16T10:31:26.702Z,13.88
2023-04-16T10:32:26.673Z,13.99
2023-04-16T10:33:26.626Z,14.17
2023-04-16T10:34:26.633Z,14.31
2023-04-16T10:35:26.597Z,14.42
2023-04-16T10:36:26.606Z,14.47
2023-04-16T10:37:26.585Z,14.50
2023-04-16T10:38:26.575Z,14.52
2023-04-16T10:39:26.562Z,14.46
2023-04-16T10:40:26.658Z,14.37
2023-04-16T10:41:26.531Z,14.27
2023-04-16T10:42:26.516Z,13.88
2023-04-16T10:43:26.493Z,13.70
2023-04-16T10:44:26.493Z,13.69
2023-04-16T10:45:26.468Z,13.65
2023-04-16T10:46:26.605Z,13.56
2023-04-16T10:47:26.463Z,13.52
2023-04-16T10:48:30.785Z,13.51
2023-04-16T10:49:27.435Z,13.51
2023-04-16T10:50:26.416Z,13.55
2023-04-16T10:51:26.418Z,13.44
2023-04-16T10:52:26.386Z,13.37
2023-04-16T10:53:26.365Z,13.37
2023-04-16T10:54:26.385Z,13.33
2023-04-16T10:55:26.336Z,13.25
2023-04-16T10:56:26.344Z,13.00
2023-04-16T10:57:26.302Z,12.82
2023-04-16T10:58:26.302Z,12.84
2023-04-16T10:59:26.304Z,12.92
2023-04-16T11:00:26.276Z,13.03
2023-04-16T11:01:26.273Z,13.15
2023-04-16T11:02:27.757Z,13.17
2023-04-16T11:03:26.465Z,13.12
2023-04-16T11:04:26.313Z,13.17
2023-04-16T11:05:26.220Z,13.25
2023-04-16T11:06:26.202Z,13.24
2023-04-16T11:07:26.173Z,13.27
2023-04-16T11:08:26.432Z,13.30
2023-04-16T11:09:26.163Z,13.29
2023-04-16T11:10:26.162Z,13.20
2023-04-16T11:11:26.124Z,13.15
2023-04-16T11:12:26.114Z,13.18
2023-04-16T11:13:26.101Z,13.29
2023-04-16T11:14:26.083Z,13.38
2023-04-16T11:15:26.072Z,13.40
2023-04-16T11:16:26.182Z,13.51
2023-04-16T11:18:16.783Z,13.71
2023-04-16T11:19:16.763Z,13.81
2023-04-16T11:20:20.155Z,13.88
2023-04-16T11:21:16.746Z,13.92
2023-04-16T11:22:16.761Z,13.94
2023-04-16T11:23:16.715Z,14.10
2023-04-16T11:24:16.705Z,14.28
2023-04-16T11:25:16.705Z,14.37
2023-04-16T11:26:16.681Z,14.43
2023-04-16T11:27:16.680Z,14.42
2023-04-16T11:28:16.652Z,14.46
2023-04-16T11:29:16.635Z,14.53
2023-04-16T11:30:16.644Z,14.54
2023-04-16T11:31:16.694Z,14.57
2023-04-16T11:32:16.597Z,14.62
2023-04-16T11:33:16.607Z,14.57
2023-04-16T11:34:16.579Z,14.49
2023-04-16T11:35:16.577Z,14.38
2023-04-16T11:36:16.551Z,14.34
2023-04-16T11:37:16.541Z,14.25
2023-04-16T11:38:16.528Z,14.24
2023-04-16T11:39:16.510Z,14.27
2023-04-16T11:40:16.537Z,14.31
2023-04-16T11:41:16.503Z,14.31
2023-04-16T11:42:16.527Z,14.37
2023-04-16T11:43:16.533Z,14.38
2023-04-16T11:44:16.447Z,14.32
2023-04-16T11:45:16.459Z,14.28
2023-04-16T11:46:26.753Z,14.16
2023-04-16T11:47:17.468Z,14.10
2023-04-16T11:48:16.463Z,14.10
2023-04-16T11:49:16.395Z,14.09
2023-04-16T11:50:16.423Z,14.04
2023-04-16T11:51:16.390Z,14.07
2023-04-16T11:52:16.348Z,14.19
2023-04-16T11:53:16.331Z,14.43
2023-04-16T11:54:16.316Z,14.64
2023-04-16T11:55:16.316Z,14.75
2023-04-16T11:56:16.296Z,14.80
2023-04-16T11:57:16.279Z,14.84
2023-04-16T11:58:16.313Z,14.81
2023-04-16T11:59:16.255Z,14.65
2023-04-16T12:00:16.264Z,14.64
2023-04-16T12:01:16.272Z,14.61
2023-04-16T12:02:16.240Z,14.67
2023-04-16T12:03:16.473Z,14.71
2023-04-16T12:04:16.497Z,14.72
2023-04-16T12:05:16.259Z,14.69
2023-04-16T12:06:16.181Z,14.65
2023-04-16T12:07:16.150Z,14.65
2023-04-16T12:08:16.168Z,14.61
2023-04-16T12:09:16.139Z,14.44
2023-04-16T12:10:16.134Z,14.21
2023-04-16T12:11:16.099Z,14.14
2023-04-16T12:12:16.097Z,14.17
2023-04-16T12:13:16.104Z,14.17
2023-04-16T12:14:16.066Z,14.20
2023-04-16T12:15:16.066Z,14.13
2023-04-16T12:16:16.077Z,14.09
2023-04-16T12:17:16.029Z,14.10
2023-04-16T12:18:16.115Z,14.16
2023-04-16T12:19:16.030Z,14.09
2023-04-16T12:20:15.985Z,14.12
2023-04-16T12:21:15.971Z,14.13
2023-04-16T12:22:15.969Z,14.14
2023-04-16T12:23:15.945Z,14.19
2023-04-16T12:24:15.947Z,14.20
2023-04-16T12:25:15.983Z,14.20
2023-04-16T12:26:15.969Z,14.21
2023-04-16T12:27:15.944Z,14.14
2023-04-16T12:28:15.893Z,14.10
2023-04-16T12:29:15.921Z,14.02
2023-04-16T12:30:15.857Z,14.01
2023-04-16T12:31:15.976Z,13.99
2023-04-16T12:32:15.850Z,13.98
2023-04-16T12:33:15.904Z,14.01
2023-04-16T12:34:15.848Z,14.06
2023-04-16T12:35:15.820Z,14.07
2023-04-16T12:36:15.788Z,14.04
2023-04-16T12:37:15.777Z,14.06
2023-04-16T12:38:15.777Z,14.07
2023-04-16T12:39:15.796Z,14.07
2023-04-16T12:40:15.745Z,14.06
2023-04-16T12:41:15.716Z,14.06
2023-04-16T12:42:15.706Z,14.02
2023-04-16T12:43:15.698Z,14.02
2023-04-16T12:44:15.679Z,14.10
2023-04-16T12:45:15.666Z,14.12
2023-04-16T12:46:15.669Z,14.16
2023-04-16T12:47:15.636Z,14.24
2023-04-16T12:48:15.633Z,14.24
2023-04-16T12:49:15.615Z,14.24
2023-04-16T12:50:15.619Z,14.19
2023-04-16T12:51:15.597Z,14.21
2023-04-16T12:52:15.566Z,14.17
2023-04-16T12:53:15.560Z,14.17
2023-04-16T12:54:15.556Z,14.24
2023-04-16T12:55:15.546Z,14.31
2023-04-16T12:56:15.514Z,14.32
2023-04-16T12:57:15.496Z,14.34
2023-04-16T12:58:15.512Z,14.24
2023-04-16T12:59:15.481Z,14.10
2023-04-16T13:00:15.481Z,14.01
2023-04-16T13:01:15.457Z,13.95
2023-04-16T13:02:15.505Z,13.92
2023-04-16T13:03:15.684Z,13.87
2023-04-16T13:04:15.494Z,13.79
2023-04-16T13:05:15.410Z,13.79
2023-04-16T13:06:15.382Z,13.79
2023-04-16T13:07:15.366Z,13.74
2023-04-16T13:08:15.370Z,13.71
2023-04-16T13:09:15.356Z,13.74
2023-04-16T13:10:15.370Z,13.79
2023-04-16T13:11:15.323Z,13.91
2023-04-16T13:12:15.324Z,13.99
2023-04-16T13:13:15.293Z,14.10
2023-04-16T13:14:15.283Z,14.16
2023-04-16T13:15:15.271Z,14.25
2023-04-16T13:16:15.326Z,14.37
2023-04-16T13:17:15.241Z,14.49
2023-04-16T13:18:15.241Z,14.56
2023-04-16T13:19:15.216Z,14.61
2023-04-16T13:20:15.229Z,14.65
2023-04-16T13:21:15.197Z,14.68
2023-04-16T13:22:15.184Z,14.83
2023-04-16T13:23:15.162Z,14.87
2023-04-16T13:24:15.171Z,14.99
2023-04-16T13:25:15.165Z,15.09
2023-04-16T13:26:15.129Z,15.23
2023-04-16T13:27:15.118Z,15.43
2023-04-16T13:28:15.098Z,15.60
2023-04-16T13:29:15.086Z,15.76
2023-04-16T13:30:15.084Z,15.85
2023-04-16T13:31:15.086Z,15.86
2023-04-16T13:32:15.059Z,15.84
2023-04-16T13:33:15.034Z,15.93
2023-04-16T13:34:15.022Z,15.94
2023-04-16T13:35:15.016Z,16.00
2023-04-16T13:36:15.000Z,16.01
2023-04-16T13:37:14.976Z,15.99
2023-04-16T13:38:14.978Z,15.92
2023-04-16T13:39:14.952Z,15.84
2023-04-16T13:40:14.958Z,15.67
2023-04-16T13:41:14.923Z,15.56
2023-04-16T13:42:14.917Z,15.42
2023-04-16T13:43:14.892Z,15.20
2023-04-16T13:44:14.890Z,15.09
2023-04-16T13:45:14.879Z,15.03
2023-04-16T13:46:14.887Z,14.94
2023-04-16T13:47:14.839Z,14.78
2023-04-16T13:48:14.842Z,14.71
2023-04-16T13:49:14.868Z,14.74
2023-04-16T13:50:14.815Z,14.81
2023-04-16T13:51:14.845Z,14.81
2023-04-16T13:52:14.785Z,14.80
2023-04-16T13:53:14.764Z,14.80
2023-04-16T13:54:14.753Z,14.86
2023-04-16T13:55:14.771Z,14.95
2023-04-16T13:56:14.736Z,15.05
2023-04-16T13:57:14.726Z,15.03
2023-04-16T13:58:14.712Z,14.98
2023-04-16T13:59:14.699Z,14.93
2023-04-16T14:00:14.682Z,14.93
2023-04-16T14:01:14.715Z,15.05
2023-04-16T14:02:14.709Z,15.20
2023-04-16T14:03:14.709Z,15.35
2023-04-16T14:04:14.765Z,15.52
2023-04-16T14:05:14.612Z,15.72
2023-04-16T14:06:14.629Z,15.92
2023-04-16T14:07:14.577Z,15.93
2023-04-16T14:08:14.580Z,15.89
2023-04-16T14:09:14.590Z,15.94
2023-04-16T14:10:14.553Z,16.00
2023-04-16T14:11:14.540Z,15.97
2023-04-16T14:12:14.533Z,16.00
2023-04-16T14:13:14.499Z,15.96
2023-04-16T14:14:14.503Z,15.88
2023-04-16T14:15:14.486Z,15.89
2023-04-16T14:16:14.499Z,15.86
2023-04-16T14:17:14.446Z,15.89
2023-04-16T14:18:14.433Z,15.96
2023-04-16T14:19:14.444Z,16.00
2023-04-16T14:20:14.425Z,15.94
2023-04-16T14:21:14.401Z,15.85
2023-04-16T14:22:14.388Z,15.78
2023-04-16T14:23:14.374Z,15.79
2023-04-16T14:24:14.370Z,15.88
2023-04-16T14:25:14.354Z,15.96
2023-04-16T14:26:14.463Z,15.94
2023-04-16T14:27:14.324Z,15.85
2023-04-16T14:28:15.718Z,15.74
2023-04-16T14:29:14.312Z,15.66
2023-04-16T14:30:14.302Z,15.63
2023-04-16T14:31:14.288Z,15.67
2023-04-16T14:32:14.370Z,15.72
2023-04-16T14:33:14.248Z,15.72
2023-04-16T14:34:14.240Z,15.66
2023-04-16T14:35:14.244Z,15.59
2023-04-16T14:36:14.242Z,15.56
2023-04-16T14:37:14.189Z,15.48
2023-04-16T14:38:14.213Z,15.23
2023-04-16T14:39:14.180Z,15.12
2023-04-16T14:40:14.173Z,15.11
2023-04-16T14:41:14.130Z,15.09
2023-04-16T14:42:14.119Z,14.98
2023-04-16T14:43:14.100Z,14.94
2023-04-16T14:44:14.104Z,14.94
2023-04-16T14:45:14.142Z,14.84
2023-04-16T14:46:14.073Z,14.81
2023-04-16T14:47:14.053Z,14.81
2023-04-16T14:48:14.073Z,14.81
2023-04-16T14:49:14.194Z,14.84
2023-04-16T14:50:14.051Z,14.87
2023-04-16T14:51:13.998Z,14.81
2023-04-16T14:52:13.988Z,14.80
2023-04-16T14:53:13.986Z,14.86
2023-04-16T14:54:13.962Z,14.90
2023-04-16T14:55:13.950Z,14.88
2023-04-16T14:56:13.945Z,14.87
2023-04-16T14:57:13.919Z,14.91
2023-04-16T14:58:13.935Z,14.87
2023-04-16T14:59:13.898Z,14.90
2023-04-16T15:00:13.894Z,14.99
2023-04-16T15:01:13.920Z,15.06
2023-04-16T15:02:13.935Z,15.08
2023-04-16T15:03:14.032Z,15.15
2023-04-16T15:04:13.945Z,15.23
2023-04-16T15:05:13.831Z,15.28
2023-04-16T15:06:13.956Z,15.27
2023-04-16T15:07:13.814Z,15.21
2023-04-16T15:08:13.798Z,15.13
2023-04-16T15:09:13.763Z,14.94
2023-04-16T15:10:13.774Z,14.88
2023-04-16T15:11:13.746Z,14.87
2023-04-16T15:12:13.835Z,14.87
2023-04-16T15:13:13.713Z,14.86
2023-04-16T15:14:13.732Z,14.88
2023-04-16T15:15:13.727Z,14.88
2023-04-16T15:16:13.690Z,14.80
2023-04-16T15:17:13.661Z,14.72
2023-04-16T15:18:13.657Z,14.71
2023-04-16T15:19:13.638Z,14.68
2023-04-16T15:20:13.651Z,14.64
2023-04-16T15:21:13.622Z,14.61
2023-04-16T15:22:13.599Z,14.57
2023-04-16T15:23:13.588Z,14.52
2023-04-16T15:24:13.576Z,14.49
2023-04-16T15:25:13.585Z,14.47
2023-04-16T15:26:13.561Z,14.49
2023-04-16T15:27:13.532Z,14.50
2023-04-16T15:28:13.550Z,14.57
2023-04-16T15:29:13.510Z,14.61
2023-04-16T15:30:13.517Z,14.67
2023-04-16T15:31:13.517Z,14.74
2023-04-16T15:32:13.473Z,14.81
2023-04-16T15:33:13.454Z,14.90
2023-04-16T15:34:13.472Z,14.94
2023-04-16T15:35:13.450Z,14.93
2023-04-16T15:36:13.427Z,14.94
2023-04-16T15:37:13.444Z,14.99
2023-04-16T15:38:13.402Z,15.02
2023-04-16T15:39:13.556Z,14.94
2023-04-16T15:40:13.389Z,14.90
2023-04-16T15:41:13.361Z,14.93
2023-04-16T15:42:13.416Z,14.90
2023-04-16T15:43:13.326Z,14.88
2023-04-16T15:44:13.324Z,14.91
2023-04-16T15:45:13.304Z,14.90
2023-04-16T15:46:13.350Z,14.93
2023-04-16T15:47:13.285Z,14.93
2023-04-16T15:48:13.331Z,14.94
2023-04-16T15:49:13.260Z,14.80
2023-04-16T15:50:13.273Z,14.80
2023-04-16T15:51:13.227Z,14.84
2023-04-16T15:52:13.222Z,14.78
2023-04-16T15:53:13.206Z,14.80
2023-04-16T15:54:13.198Z,14.75
2023-04-16T15:55:13.194Z,14.75
2023-04-16T15:56:13.170Z,14.80
2023-04-16T15:57:13.152Z,14.80
2023-04-16T15:58:13.142Z,14.81
2023-04-16T15:59:13.216Z,14.81
2023-04-16T16:00:13.400Z,14.81
2023-04-16T16:01:13.101Z,14.83
2023-04-16T16:02:13.135Z,14.80
2023-04-16T16:03:13.167Z,14.74
2023-04-16T16:04:13.259Z,14.68
2023-04-16T16:05:13.072Z,14.65
2023-04-16T16:06:13.044Z,14.64
2023-04-16T16:07:13.025Z,14.62
2023-04-16T16:08:13.037Z,14.64
2023-04-16T16:09:13.082Z,14.62
2023-04-16T16:10:13.140Z,14.60
2023-04-16T16:11:12.965Z,14.53
2023-04-16T16:12:12.959Z,14.53
2023-04-16T16:13:12.974Z,14.56
2023-04-16T16:14:12.963Z,14.62
2023-04-16T16:15:12.932Z,14.65
2023-04-16T16:16:12.953Z,14.62
2023-04-16T16:17:12.906Z,14.64
2023-04-16T16:18:12.901Z,14.65
2023-04-16T16:19:12.867Z,14.74
2023-04-16T16:20:12.914Z,14.86
2023-04-16T16:21:12.847Z,14.93
2023-04-16T16:22:12.839Z,14.94
2023-04-16T16:23:12.818Z,14.93
2023-04-16T16:24:12.815Z,14.94
2023-04-16T16:25:12.799Z,14.88
2023-04-16T16:26:12.781Z,14.91
2023-04-16T16:27:12.774Z,14.95
2023-04-16T16:28:12.758Z,14.99
2023-04-16T16:29:12.909Z,15.01
2023-04-16T16:30:12.736Z,14.93
2023-04-16T16:31:12.798Z,14.90
2023-04-16T16:32:12.707Z,14.87
2023-04-16T16:33:12.682Z,14.81
2023-04-16T16:34:19.879Z,14.80
2023-04-16T16:35:13.673Z,14.75
2023-04-16T16:36:12.653Z,14.74
2023-04-16T16:37:12.625Z,14.78
2023-04-16T16:38:12.630Z,14.80
2023-04-16T16:39:12.713Z,14.81
2023-04-16T16:40:12.616Z,14.80
2023-04-16T16:41:12.582Z,14.67
2023-04-16T16:42:12.571Z,14.57
2023-04-16T16:43:12.621Z,14.53
2023-04-16T16:44:12.558Z,14.52
2023-04-16T16:45:12.542Z,14.53
2023-04-16T16:46:12.558Z,14.56
2023-04-16T16:47:12.500Z,14.57
2023-04-16T16:48:12.500Z,14.61
2023-04-16T16:49:12.582Z,14.62
2023-04-16T16:50:12.480Z,14.60
2023-04-16T16:51:12.453Z,14.50
2023-04-16T16:52:12.444Z,14.39
2023-04-16T16:53:12.435Z,14.31
2023-04-16T16:54:12.417Z,14.28
2023-04-16T16:55:12.415Z,14.21
2023-04-16T16:56:12.400Z,14.16
2023-04-16T16:57:12.377Z,14.14
2023-04-16T16:58:12.387Z,14.12
2023-04-16T16:59:12.550Z,14.09
2023-04-16T17:00:12.346Z,14.06
2023-04-16T17:01:12.398Z,14.04
2023-04-16T17:02:12.379Z,13.99
2023-04-16T17:03:12.408Z,13.96
2023-04-16T17:04:12.395Z,13.96
2023-04-16T17:05:12.281Z,13.96
2023-04-16T17:06:12.266Z,13.96
2023-04-16T17:07:12.249Z,13.95
2023-04-16T17:08:12.250Z,13.94
2023-04-16T17:09:12.415Z,13.92
2023-04-16T17:10:12.222Z,13.89
2023-04-16T17:11:12.204Z,13.88
2023-04-16T17:12:12.180Z,13.84
2023-04-16T17:13:12.199Z,13.84
2023-04-16T17:14:12.169Z,13.80
2023-04-16T17:15:12.150Z,13.80
2023-04-16T17:16:12.139Z,13.81